Terminal Aerodrome Forecast
Issued by NWS Topeka, KS

Home | Current Version | Previous Version | Graphics & Text | Print | Product List | Glossary On
Versions: 1 2 3 4 5 6 7 8 9 10 11 12 13 14 15
696
FTUS43 KTOP 081127
TAFTOP
TAF
KTOP 081127Z 0812/0912 30018G30KT P6SM OVC070
     FM081500 32026G38KT P6SM SCT025 OVC035
     FM082300 32022G30KT P6SM BKN035
     FM090300 31016G24KT P6SM SCT040=

USA.gov is the U.S. government's official web portal to all federal, state and local government web resources and services.